Time;durP1;ratioP1;P1;durP2;ratioP2;P2;SDS_P1;SDS_P2;PMS_P1;PMS_P2;Temp;Humidity;BMP_temperature;BMP_pressure;BME280_temperature;BME280_humidity;BME280_pressure;Samples;Min_cycle;Max_cycle;Signal;HPM_P1;HPM_P2
2021/12/28 00:00:09;;;;;;;;;1.00;1.00;;;;;;;;4976083;28;45223;-55
2021/12/28 00:02:34;;;;;;;;;0.00;0.00;;;;;;;;4976858;28;45372;-56
2021/12/28 00:04:59;;;;;;;;;0.00;0.00;;;;;;;;4976766;28;45391;-53
2021/12/28 00:07:25;;;;;;;;;0.00;0.00;;;;;;;;4976207;28;45455;-57
2021/12/28 00:09:50;;;;;;;;;0.00;0.00;;;;;;;;4976809;28;45360;-54
2021/12/28 00:12:15;;;;;;;;;0.00;0.00;;;;;;;;4976758;28;45561;-56
2021/12/28 00:14:49;;;;;;;;;0.00;0.00;;;;;;;;4976728;28;46073;-56
2021/12/28 00:19:58;;;;;;;;;0.00;0.00;;;;;;;;4976124;28;45274;-53
2021/12/28 00:22:24;;;;;;;;;1.00;1.00;;;;;;;;4976624;28;45239;-55
2021/12/28 00:24:49;;;;;;;;;0.00;0.00;;;;;;;;4976672;28;45295;-55
2021/12/28 00:27:14;;;;;;;;;0.00;0.00;;;;;;;;4976540;28;45353;-53
2021/12/28 00:29:39;;;;;;;;;1.00;1.00;;;;;;;;4976319;28;45226;-54
2021/12/28 00:32:04;;;;;;;;;2.00;0.67;;;;;;;;4976743;28;45183;-55
2021/12/28 00:34:31;;;;;;;;;0.00;0.00;;;;;;;;4976465;28;46019;-55
2021/12/28 00:36:57;;;;;;;;;0.00;0.00;;;;;;;;4976492;28;45341;-56
2021/12/28 00:39:22;;;;;;;;;1.67;1.00;;;;;;;;4976428;28;45289;-56
2021/12/28 00:41:47;;;;;;;;;1.00;1.00;;;;;;;;4976098;28;45544;-55
2021/12/28 00:44:14;;;;;;;;;1.67;1.67;;;;;;;;4975999;28;46202;-56
2021/12/28 00:46:39;;;;;;;;;1.00;1.00;;;;;;;;4976072;28;45362;-56
2021/12/28 00:49:05;;;;;;;;;1.00;1.00;;;;;;;;4976056;28;45329;-55
2021/12/28 00:51:30;;;;;;;;;2.00;0.67;;;;;;;;4976017;28;45656;-55
2021/12/28 00:53:56;;;;;;;;;1.00;1.00;;;;;;;;4976049;28;45380;-55
2021/12/28 00:56:21;;;;;;;;;5.00;2.00;;;;;;;;4976059;28;45476;-56
2021/12/28 00:58:46;;;;;;;;;1.67;1.67;;;;;;;;4976254;28;45386;-53
2021/12/28 01:01:12;;;;;;;;;1.00;1.00;;;;;;;;4976191;28;45461;-56
2021/12/28 01:03:38;;;;;;;;;1.00;1.00;;;;;;;;4974240;28;46195;-55
2021/12/28 01:06:03;;;;;;;;;1.00;1.00;;;;;;;;4976063;28;45591;-56
2021/12/28 01:08:29;;;;;;;;;0.33;0.33;;;;;;;;4976183;28;45251;-53
2021/12/28 01:10:54;;;;;;;;;0.33;0.33;;;;;;;;4976083;28;45571;-62
2021/12/28 01:13:20;;;;;;;;;0.33;0.33;;;;;;;;4978113;28;45344;-57
2021/12/28 01:15:45;;;;;;;;;2.00;1.00;;;;;;;;4979023;28;45398;-56
2021/12/28 01:18:12;;;;;;;;;0.33;0.33;;;;;;;;4979565;28;45522;-55
2021/12/28 01:20:37;;;;;;;;;1.00;1.00;;;;;;;;4979026;28;45356;-55
2021/12/28 01:23:03;;;;;;;;;0.00;0.00;;;;;;;;4979267;28;45353;-56
2021/12/28 01:25:28;;;;;;;;;0.00;0.00;;;;;;;;4978635;28;45419;-57
2021/12/28 01:27:53;;;;;;;;;0.00;0.00;;;;;;;;4979303;28;45293;-54
2021/12/28 01:30:20;;;;;;;;;0.00;0.00;;;;;;;;4979369;28;45277;-56
2021/12/28 01:32:46;;;;;;;;;0.00;0.00;;;;;;;;4979190;28;45307;-57
2021/12/28 01:35:12;;;;;;;;;0.00;0.00;;;;;;;;4977877;28;45628;-54
2021/12/28 01:37:37;;;;;;;;;0.00;0.00;;;;;;;;4978705;28;45381;-55
2021/12/28 01:40:04;;;;;;;;;0.00;0.00;;;;;;;;4979192;28;45245;-56
2021/12/28 01:42:29;;;;;;;;;0.00;0.00;;;;;;;;4978788;28;45278;-56
2021/12/28 01:44:54;;;;;;;;;0.00;0.00;;;;;;;;4979009;28;45436;-56
2021/12/28 01:47:20;;;;;;;;;0.00;0.00;;;;;;;;4978479;28;45286;-57
2021/12/28 01:49:45;;;;;;;;;0.00;0.00;;;;;;;;4978786;28;45353;-56
2021/12/28 01:52:11;;;;;;;;;0.00;0.00;;;;;;;;4978584;28;45455;-52
2021/12/28 01:54:37;;;;;;;;;0.00;0.00;;;;;;;;4978776;28;45523;-55
2021/12/28 01:57:02;;;;;;;;;0.00;0.00;;;;;;;;4979084;28;45445;-55
2021/12/28 01:59:27;;;;;;;;;0.00;0.00;;;;;;;;4978315;28;45523;-56
2021/12/28 02:01:53;;;;;;;;;0.00;0.00;;;;;;;;4978567;28;45435;-53
2021/12/28 02:04:23;;;;;;;;;0.00;0.00;;;;;;;;4978782;28;45325;-54
2021/12/28 02:06:49;;;;;;;;;0.33;0.00;;;;;;;;4978859;28;45446;-56
2021/12/28 02:09:14;;;;;;;;;0.00;0.00;;;;;;;;4978351;28;45255;-54
2021/12/28 02:11:40;;;;;;;;;0.00;0.00;;;;;;;;4978639;28;46321;-56
2021/12/28 02:14:08;;;;;;;;;0.00;0.00;;;;;;;;4978047;28;45347;-54
2021/12/28 02:16:35;;;;;;;;;0.00;0.00;;;;;;;;4978519;28;45301;-54
2021/12/28 02:19:02;;;;;;;;;0.00;0.00;;;;;;;;4978495;28;45299;-55
2021/12/28 02:21:31;;;;;;;;;0.00;0.00;;;;;;;;4976198;28;46446;-57
2021/12/28 02:23:56;;;;;;;;;0.00;0.00;;;;;;;;4977722;28;45403;-55
2021/12/28 02:26:21;;;;;;;;;1.00;0.00;;;;;;;;4978341;28;45251;-54
2021/12/28 02:28:46;;;;;;;;;0.00;0.00;;;;;;;;4978038;28;45331;-56
2021/12/28 02:31:11;;;;;;;;;0.00;0.00;;;;;;;;4977598;28;45488;-56
2021/12/28 02:33:37;;;;;;;;;0.00;0.00;;;;;;;;4978198;28;45328;-56
2021/12/28 02:36:03;;;;;;;;;0.00;0.00;;;;;;;;4978180;28;45514;-56
2021/12/28 02:38:29;;;;;;;;;0.00;0.00;;;;;;;;4977989;28;45554;-56
2021/12/28 02:40:55;;;;;;;;;0.00;0.00;;;;;;;;4977906;28;45302;-55
2021/12/28 02:43:20;;;;;;;;;0.00;0.00;;;;;;;;4977437;28;45308;-56
2021/12/28 02:45:50;;;;;;;;;0.00;0.00;;;;;;;;4977889;28;45488;-55
2021/12/28 02:48:16;;;;;;;;;0.00;0.00;;;;;;;;4978179;28;45234;-55
2021/12/28 02:50:43;;;;;;;;;0.00;0.00;;;;;;;;4977836;28;45226;-54
2021/12/28 02:53:09;;;;;;;;;0.00;0.00;;;;;;;;4976200;28;45342;-51
2021/12/28 02:55:36;;;;;;;;;0.33;0.33;;;;;;;;4978019;28;45503;-54
2021/12/28 02:58:04;;;;;;;;;0.00;0.00;;;;;;;;4964097;28;45545;-60
2021/12/28 03:00:35;;;;;;;;;0.67;0.00;;;;;;;;4958133;28;45308;-57
2021/12/28 03:03:05;;;;;;;;;0.00;0.00;;;;;;;;4958294;28;45414;-57
2021/12/28 03:05:30;;;;;;;;;1.00;0.00;;;;;;;;4958082;28;45278;-56
2021/12/28 03:07:55;;;;;;;;;0.00;0.00;;;;;;;;4958231;28;45326;-54
2021/12/28 03:10:21;;;;;;;;;0.00;0.00;;;;;;;;4958309;28;45436;-55
2021/12/28 03:12:46;;;;;;;;;0.00;0.00;;;;;;;;4958423;28;45330;-56
2021/12/28 03:15:12;;;;;;;;;0.00;0.00;;;;;;;;4957887;28;45322;-56
2021/12/28 03:17:39;;;;;;;;;0.00;0.00;;;;;;;;4958246;28;45388;-53
2021/12/28 03:20:05;;;;;;;;;0.00;0.00;;;;;;;;4957668;28;45459;-57
2021/12/28 03:22:35;;;;;;;;;0.00;0.00;;;;;;;;4957963;28;45519;-56
2021/12/28 03:25:00;;;;;;;;;0.00;0.00;;;;;;;;4956813;28;45368;-56
2021/12/28 03:27:25;;;;;;;;;0.00;0.00;;;;;;;;4955987;28;45289;-56
2021/12/28 03:29:51;;;;;;;;;0.00;0.00;;;;;;;;4957496;28;45396;-55
2021/12/28 03:32:17;;;;;;;;;0.00;0.00;;;;;;;;4957795;28;45350;-56
2021/12/28 03:34:42;;;;;;;;;0.00;0.00;;;;;;;;4971890;28;45317;-54
2021/12/28 03:37:08;;;;;;;;;0.00;0.00;;;;;;;;4957436;28;45337;-55
2021/12/28 03:39:33;;;;;;;;;0.00;0.00;;;;;;;;4957873;28;45250;-56
2021/12/28 03:41:59;;;;;;;;;0.00;0.00;;;;;;;;4957693;28;45329;-54
2021/12/28 03:44:24;;;;;;;;;1.00;1.00;;;;;;;;4957987;28;45322;-56
2021/12/28 03:46:49;;;;;;;;;1.00;0.00;;;;;;;;4957994;28;45294;-54
2021/12/28 03:49:14;;;;;;;;;0.00;0.00;;;;;;;;4955667;28;46460;-56
2021/12/28 03:51:39;;;;;;;;;1.00;0.00;;;;;;;;4957649;28;45613;-56
2021/12/28 03:54:05;;;;;;;;;0.67;0.67;;;;;;;;4957875;28;45373;-57
2021/12/28 03:56:30;;;;;;;;;2.33;0.67;;;;;;;;4957643;28;45479;-56
2021/12/28 03:58:56;;;;;;;;;0.00;0.00;;;;;;;;4955262;28;45577;-55
2021/12/28 04:01:23;;;;;;;;;0.00;0.00;;;;;;;;4957459;28;45298;-56
2021/12/28 04:03:49;;;;;;;;;0.00;0.00;;;;;;;;4957829;28;45384;-56
2021/12/28 04:06:14;;;;;;;;;0.67;0.67;;;;;;;;4956302;28;45513;-56
2021/12/28 04:08:40;;;;;;;;;0.00;0.00;;;;;;;;4957369;28;45313;-55
2021/12/28 04:11:25;;;;;;;;;0.00;0.00;;;;;;;;4957196;28;45375;-56
2021/12/28 04:13:51;;;;;;;;;0.00;0.00;;;;;;;;4956382;28;45471;-57
2021/12/28 04:16:17;;;;;;;;;0.00;0.00;;;;;;;;4957577;28;45590;-56
2021/12/28 04:18:42;;;;;;;;;0.33;0.00;;;;;;;;4957440;28;45496;-54
2021/12/28 04:21:08;;;;;;;;;0.00;0.00;;;;;;;;4956686;28;45440;-56
2021/12/28 04:23:33;;;;;;;;;0.67;0.67;;;;;;;;4957474;28;45443;-56
2021/12/28 04:25:59;;;;;;;;;0.00;0.00;;;;;;;;4956896;28;45333;-56
2021/12/28 04:28:24;;;;;;;;;0.00;0.00;;;;;;;;4956949;28;45913;-56
2021/12/28 04:30:49;;;;;;;;;0.00;0.00;;;;;;;;4957462;28;45210;-56
2021/12/28 04:33:14;;;;;;;;;0.00;0.00;;;;;;;;4955542;28;45275;-57
2021/12/28 04:35:40;;;;;;;;;0.00;0.00;;;;;;;;4957292;28;45674;-54
2021/12/28 04:38:05;;;;;;;;;0.00;0.00;;;;;;;;4957185;28;46201;-54
2021/12/28 04:40:30;;;;;;;;;0.00;0.00;;;;;;;;4957273;28;45247;-54
2021/12/28 04:42:55;;;;;;;;;0.00;0.00;;;;;;;;4956881;28;45352;-57
2021/12/28 04:45:21;;;;;;;;;0.00;0.00;;;;;;;;4957129;28;45479;-57
2021/12/28 04:47:46;;;;;;;;;0.00;0.00;;;;;;;;4960321;28;45335;-57
2021/12/28 04:50:12;;;;;;;;;0.00;0.00;;;;;;;;4960410;28;45366;-55
2021/12/28 04:52:38;;;;;;;;;1.00;0.00;;;;;;;;4960628;28;45438;-55
2021/12/28 04:55:10;;;;;;;;;2.00;0.00;;;;;;;;4959966;28;45260;-55
2021/12/28 04:57:35;;;;;;;;;1.00;0.00;;;;;;;;4960293;28;46148;-55
2021/12/28 05:00:00;;;;;;;;;0.00;0.00;;;;;;;;4960342;28;45387;-56
2021/12/28 05:02:25;;;;;;;;;0.00;0.00;;;;;;;;4960472;28;45433;-56
2021/12/28 05:04:51;;;;;;;;;0.00;0.00;;;;;;;;4959838;28;45657;-54
2021/12/28 05:07:16;;;;;;;;;2.00;2.00;;;;;;;;4960066;28;46300;-56
2021/12/28 05:09:41;;;;;;;;;2.00;0.00;;;;;;;;4960208;28;45405;-55
2021/12/28 05:12:07;;;;;;;;;3.00;0.00;;;;;;;;4960318;28;45394;-55
2021/12/28 05:14:33;;;;;;;;;0.00;0.00;;;;;;;;4960123;28;45538;-57
2021/12/28 05:16:58;;;;;;;;;0.33;0.00;;;;;;;;4959534;28;45659;-56
2021/12/28 05:19:24;;;;;;;;;2.00;0.00;;;;;;;;4959768;28;45430;-55
2021/12/28 05:21:49;;;;;;;;;1.00;1.00;;;;;;;;4960185;28;45328;-56
2021/12/28 05:24:14;;;;;;;;;0.00;0.00;;;;;;;;4960055;28;45604;-57
2021/12/28 05:26:39;;;;;;;;;2.67;0.33;;;;;;;;4959466;28;46514;-55
2021/12/28 05:29:05;;;;;;;;;0.67;0.67;;;;;;;;4959689;28;45416;-57
2021/12/28 05:31:31;;;;;;;;;0.00;0.00;;;;;;;;4960134;28;45151;-55
2021/12/28 05:33:56;;;;;;;;;1.00;0.00;;;;;;;;4959893;28;45651;-56
2021/12/28 05:36:22;;;;;;;;;1.33;0.00;;;;;;;;4959940;28;46074;-56
2021/12/28 05:38:47;;;;;;;;;1.67;0.33;;;;;;;;4959230;28;45390;-55
2021/12/28 05:41:13;;;;;;;;;2.00;1.00;;;;;;;;4959910;28;45306;-56
2021/12/28 05:43:38;;;;;;;;;0.00;0.00;;;;;;;;4959900;28;45597;-53
2021/12/28 05:46:03;;;;;;;;;0.00;0.00;;;;;;;;4959727;28;45941;-56
2021/12/28 05:48:28;;;;;;;;;0.00;0.00;;;;;;;;4959360;28;45290;-54
2021/12/28 05:50:54;;;;;;;;;1.00;0.00;;;;;;;;4959386;28;45305;-57
2021/12/28 05:53:19;;;;;;;;;0.00;0.00;;;;;;;;4959774;28;45280;-57
2021/12/28 05:55:44;;;;;;;;;0.67;0.00;;;;;;;;4959307;28;45320;-56
2021/12/28 05:58:10;;;;;;;;;0.00;0.00;;;;;;;;4958728;28;45333;-56
2021/12/28 06:00:35;;;;;;;;;0.00;0.00;;;;;;;;4959061;28;45246;-57
2021/12/28 06:03:00;;;;;;;;;1.00;0.00;;;;;;;;4959486;28;45346;-55
2021/12/28 06:05:25;;;;;;;;;0.33;0.00;;;;;;;;4959375;28;45352;-53
2021/12/28 06:07:51;;;;;;;;;0.00;0.00;;;;;;;;4959154;28;45309;-55
2021/12/28 06:10:16;;;;;;;;;1.00;0.00;;;;;;;;4959235;28;45326;-57
2021/12/28 06:12:42;;;;;;;;;1.33;1.33;;;;;;;;4958965;28;45238;-55
2021/12/28 06:15:08;;;;;;;;;1.33;1.00;;;;;;;;4959141;28;46288;-56
2021/12/28 06:17:33;;;;;;;;;2.00;0.33;;;;;;;;4959114;28;45304;-55
2021/12/28 06:19:58;;;;;;;;;1.00;1.00;;;;;;;;4959241;28;46229;-57
2021/12/28 06:22:23;;;;;;;;;2.33;1.00;;;;;;;;4958616;28;45308;-54
2021/12/28 06:24:49;;;;;;;;;0.33;0.33;;;;;;;;4959079;28;46095;-56
2021/12/28 06:27:15;;;;;;;;;0.67;0.67;;;;;;;;4958979;28;45305;-53
2021/12/28 06:29:40;;;;;;;;;0.00;0.00;;;;;;;;4958911;28;45412;-57
2021/12/28 06:32:05;;;;;;;;;0.00;0.00;;;;;;;;4959017;28;45476;-56
2021/12/28 06:34:30;;;;;;;;;1.00;1.00;;;;;;;;4958278;28;45472;-53
2021/12/28 06:36:56;;;;;;;;;2.67;0.00;;;;;;;;4958809;28;45485;-56
2021/12/28 06:39:21;;;;;;;;;4.00;2.00;;;;;;;;4959091;28;45490;-55
2021/12/28 06:41:46;;;;;;;;;1.00;0.00;;;;;;;;4958826;28;45428;-55
2021/12/28 06:44:11;;;;;;;;;1.00;1.00;;;;;;;;4957033;28;48103;-52
2021/12/28 06:46:37;;;;;;;;;2.00;2.00;;;;;;;;4958863;28;45295;-53
2021/12/28 06:49:03;;;;;;;;;1.00;1.00;;;;;;;;4958653;28;45461;-54
2021/12/28 06:51:28;;;;;;;;;3.67;2.00;;;;;;;;4958752;28;45488;-56
2021/12/28 06:53:54;;;;;;;;;3.67;2.00;;;;;;;;4958282;28;46175;-56
2021/12/28 06:56:19;;;;;;;;;4.00;1.33;;;;;;;;4958109;28;45428;-55
2021/12/28 06:58:44;;;;;;;;;3.33;2.00;;;;;;;;4958548;28;45465;-58
2021/12/28 07:01:10;;;;;;;;;4.67;1.00;;;;;;;;4958553;28;45552;-59
2021/12/28 07:03:35;;;;;;;;;2.00;2.00;;;;;;;;4958320;28;45334;-57
2021/12/28 07:06:02;;;;;;;;;3.33;1.00;;;;;;;;4957855;28;45212;-54
2021/12/28 07:08:27;;;;;;;;;4.00;1.00;;;;;;;;4958292;28;45355;-57
2021/12/28 07:10:52;;;;;;;;;2.33;1.00;;;;;;;;4958306;28;45285;-53
2021/12/28 07:13:17;;;;;;;;;0.00;0.00;;;;;;;;4958361;28;45326;-56
2021/12/28 07:15:43;;;;;;;;;3.00;1.33;;;;;;;;4958265;28;45314;-56
2021/12/28 07:18:09;;;;;;;;;2.67;0.67;;;;;;;;4956406;28;45291;-55
2021/12/28 07:20:34;;;;;;;;;0.00;0.00;;;;;;;;4958215;28;45282;-55
2021/12/28 07:22:59;;;;;;;;;1.00;1.00;;;;;;;;4973058;28;47046;-56
2021/12/28 07:25:24;;;;;;;;;1.00;1.00;;;;;;;;4957859;28;45411;-56
2021/12/28 07:27:50;;;;;;;;;2.67;2.00;;;;;;;;4957539;28;45331;-57
2021/12/28 07:30:15;;;;;;;;;1.00;1.00;;;;;;;;4957926;28;45644;-55
2021/12/28 07:32:41;;;;;;;;;2.00;2.00;;;;;;;;4957827;28;45588;-57
2021/12/28 07:35:07;;;;;;;;;0.67;0.00;;;;;;;;4957865;28;45263;-56
2021/12/28 07:37:33;;;;;;;;;0.00;0.00;;;;;;;;4956289;28;45435;-56
2021/12/28 07:39:58;;;;;;;;;4.00;3.00;;;;;;;;4957349;28;45521;-55
2021/12/28 07:42:23;;;;;;;;;1.00;1.00;;;;;;;;4957649;28;46192;-57
2021/12/28 07:44:49;;;;;;;;;3.67;2.00;;;;;;;;4957709;28;45488;-57
2021/12/28 07:47:15;;;;;;;;;2.67;2.67;;;;;;;;4957872;28;45531;-56
2021/12/28 07:49:40;;;;;;;;;2.67;2.00;;;;;;;;4957024;28;45448;-51
2021/12/28 07:52:06;;;;;;;;;3.67;2.00;;;;;;;;4957654;28;45488;-53
2021/12/28 07:54:32;;;;;;;;;2.00;1.00;;;;;;;;4957597;28;45330;-51
2021/12/28 07:56:57;;;;;;;;;4.00;1.67;;;;;;;;4957563;28;45213;-56
2021/12/28 07:59:22;;;;;;;;;1.33;1.00;;;;;;;;4957522;28;45317;-53
2021/12/28 08:01:47;;;;;;;;;0.33;0.00;;;;;;;;4956745;28;45448;-57
2021/12/28 08:04:13;;;;;;;;;2.33;1.00;;;;;;;;4957625;28;45314;-56
2021/12/28 08:06:38;;;;;;;;;3.00;1.00;;;;;;;;4956273;28;45303;-57
2021/12/28 08:09:03;;;;;;;;;6.67;1.00;;;;;;;;4957600;28;45171;-57
2021/12/28 08:11:29;;;;;;;;;1.67;1.00;;;;;;;;4957205;28;45513;-53
2021/12/28 08:13:54;;;;;;;;;2.00;1.00;;;;;;;;4957214;28;45384;-52
2021/12/28 08:16:19;;;;;;;;;2.67;1.67;;;;;;;;4957455;28;45416;-58
2021/12/28 08:18:45;;;;;;;;;4.00;2.33;;;;;;;;4957164;28;45167;-55
2021/12/28 08:21:10;;;;;;;;;1.00;0.00;;;;;;;;4956421;28;46263;-54
2021/12/28 08:23:35;;;;;;;;;0.33;0.33;;;;;;;;4956723;28;45354;-51
2021/12/28 08:26:00;;;;;;;;;3.00;0.00;;;;;;;;4956970;28;45398;-53
2021/12/28 08:28:26;;;;;;;;;3.00;1.00;;;;;;;;4957083;28;45233;-55
2021/12/28 08:30:51;;;;;;;;;1.00;0.00;;;;;;;;4957039;28;46038;-49
2021/12/28 08:33:16;;;;;;;;;0.00;0.00;;;;;;;;4972265;28;45231;-53
2021/12/28 08:35:42;;;;;;;;;1.00;1.00;;;;;;;;4956943;28;45183;-53
2021/12/28 08:38:08;;;;;;;;;3.00;2.00;;;;;;;;4957135;28;45231;-50
2021/12/28 08:40:34;;;;;;;;;0.00;0.00;;;;;;;;4957007;28;45957;-51
2021/12/28 08:42:59;;;;;;;;;1.00;1.00;;;;;;;;4956873;28;45331;-56
2021/12/28 08:45:24;;;;;;;;;2.33;1.00;;;;;;;;4956610;28;45501;-51
2021/12/28 08:47:49;;;;;;;;;0.00;0.00;;;;;;;;4955454;28;45371;-54
2021/12/28 08:50:16;;;;;;;;;1.67;1.67;;;;;;;;4956590;28;45998;-53
2021/12/28 08:52:41;;;;;;;;;0.67;0.67;;;;;;;;4956841;28;45269;-56
2021/12/28 08:55:07;;;;;;;;;1.00;1.00;;;;;;;;4957082;28;45281;-52
2021/12/28 08:57:32;;;;;;;;;2.00;0.33;;;;;;;;4956534;28;45325;-52
2021/12/28 08:59:57;;;;;;;;;0.00;0.00;;;;;;;;4956772;28;46167;-53
2021/12/28 09:02:23;;;;;;;;;2.00;2.00;;;;;;;;4956692;28;45310;-55
2021/12/28 09:04:48;;;;;;;;;0.00;0.00;;;;;;;;4956809;28;45343;-58
2021/12/28 09:07:14;;;;;;;;;1.00;1.00;;;;;;;;4956410;28;45484;-51
2021/12/28 09:09:40;;;;;;;;;1.00;0.67;;;;;;;;4956607;28;45357;-52
2021/12/28 09:12:05;;;;;;;;;5.67;2.00;;;;;;;;4956686;28;45393;-54
2021/12/28 09:14:32;;;;;;;;;0.00;0.00;;;;;;;;4956740;28;45408;-56
2021/12/28 09:16:57;;;;;;;;;4.00;1.33;;;;;;;;4956686;28;45501;-51
2021/12/28 09:19:22;;;;;;;;;3.33;1.67;;;;;;;;4955483;28;46250;-52
2021/12/28 09:21:47;;;;;;;;;2.00;2.00;;;;;;;;4956718;28;45164;-57
2021/12/28 09:24:12;;;;;;;;;1.00;0.00;;;;;;;;4956876;28;45457;-55
2021/12/28 09:26:38;;;;;;;;;6.00;2.00;;;;;;;;4956603;28;45340;-54
2021/12/28 09:29:03;;;;;;;;;2.67;2.67;;;;;;;;4956034;28;45376;-55
2021/12/28 09:31:28;;;;;;;;;3.67;2.67;;;;;;;;4956560;28;45404;-51
2021/12/28 09:33:53;;;;;;;;;2.33;2.33;;;;;;;;4958606;28;45313;-56
2021/12/28 09:36:19;;;;;;;;;2.00;1.00;;;;;;;;4959836;28;45443;-54
2021/12/28 09:38:44;;;;;;;;;2.00;2.00;;;;;;;;4959490;28;46428;-50
2021/12/28 09:41:10;;;;;;;;;3.00;3.00;;;;;;;;4959238;28;45244;-54
2021/12/28 09:43:36;;;;;;;;;3.33;2.00;;;;;;;;4958307;28;45369;-54
2021/12/28 09:46:01;;;;;;;;;3.67;2.67;;;;;;;;4959743;28;45266;-52
2021/12/28 09:48:26;;;;;;;;;3.00;3.00;;;;;;;;4959302;28;45337;-51
2021/12/28 09:50:52;;;;;;;;;3.00;3.00;;;;;;;;4959018;28;45381;-55
2021/12/28 09:53:17;;;;;;;;;4.33;4.33;;;;;;;;4959614;28;45265;-54
2021/12/28 09:55:43;;;;;;;;;3.00;3.00;;;;;;;;4959523;28;45476;-55
2021/12/28 09:58:09;;;;;;;;;1.33;1.33;;;;;;;;4959295;28;46123;-54
2021/12/28 10:00:34;;;;;;;;;6.33;5.00;;;;;;;;4959203;28;45346;-51
2021/12/28 10:02:59;;;;;;;;;4.33;4.33;;;;;;;;4958751;28;45210;-56
2021/12/28 10:05:26;;;;;;;;;3.33;3.33;;;;;;;;4959130;28;45250;-51
2021/12/28 10:07:56;;;;;;;;;4.33;3.33;;;;;;;;4959144;28;46113;-54
2021/12/28 10:10:22;;;;;;;;;7.67;6.67;;;;;;;;4957550;28;45459;-54
2021/12/28 10:12:52;;;;;;;;;5.00;2.67;;;;;;;;4958610;28;45315;-52
2021/12/28 10:15:19;;;;;;;;;3.00;3.00;;;;;;;;4958721;28;45291;-49
2021/12/28 10:17:46;;;;;;;;;5.00;4.00;;;;;;;;4958632;28;45324;-52
2021/12/28 10:20:13;;;;;;;;;5.00;3.33;;;;;;;;4958353;28;45445;-52
2021/12/28 10:22:42;;;;;;;;;4.00;4.00;;;;;;;;4958611;28;45259;-52
2021/12/28 10:25:09;;;;;;;;;5.67;5.67;;;;;;;;4958429;28;45334;-50
2021/12/28 10:27:36;;;;;;;;;3.33;3.33;;;;;;;;4958479;28;45476;-52
2021/12/28 10:30:09;;;;;;;;;5.33;3.33;;;;;;;;4958462;28;45916;-49
2021/12/28 10:32:36;;;;;;;;;5.00;2.33;;;;;;;;4958723;28;45319;-51
2021/12/28 10:35:05;;;;;;;;;4.00;2.00;;;;;;;;4958295;28;45366;-50
2021/12/28 10:37:32;;;;;;;;;3.33;3.33;;;;;;;;4958317;28;47450;-53
2021/12/28 10:39:59;;;;;;;;;6.00;4.67;;;;;;;;4958367;28;45334;-52
2021/12/28 10:42:42;;;;;;;;;6.67;5.00;;;;;;;;4958572;28;45419;-54
2021/12/28 10:45:11;;;;;;;;;10.50;5.00;;;;;;;;4958127;28;45357;-57
2021/12/28 10:47:36;;;;;;;;;4.67;4.67;;;;;;;;4958112;28;46423;-54
2021/12/28 10:50:18;;;;;;;;;6.67;3.67;;;;;;;;4958323;28;45390;-50
2021/12/28 10:52:49;;;;;;;;;4.00;3.33;;;;;;;;4958574;28;45451;-56
2021/12/28 10:55:21;;;;;;;;;5.00;4.00;;;;;;;;4957383;28;45571;-54
2021/12/28 10:57:46;;;;;;;;;6.33;5.33;;;;;;;;4957897;28;46255;-52
2021/12/28 11:00:25;;;;;;;;;2.33;1.67;;;;;;;;4958381;28;45273;-51
2021/12/28 11:02:50;;;;;;;;;7.33;3.00;;;;;;;;4958357;28;45249;-54
2021/12/28 11:05:31;;;;;;;;;5.33;4.33;;;;;;;;4958121;28;45346;-54
2021/12/28 11:07:57;;;;;;;;;6.67;4.00;;;;;;;;4957569;28;45913;-52
2021/12/28 11:10:25;;;;;;;;;6.33;6.33;;;;;;;;4958147;28;45302;-51
2021/12/28 11:12:50;;;;;;;;;4.00;3.00;;;;;;;;4958008;28;45161;-52
2021/12/28 11:15:19;;;;;;;;;4.67;2.67;;;;;;;;4956512;28;45290;-54
2021/12/28 11:17:46;;;;;;;;;5.67;4.33;;;;;;;;4957996;28;45369;-58
2021/12/28 11:20:11;;;;;;;;;2.67;1.00;;;;;;;;4957264;28;45376;-54
2021/12/28 11:22:36;;;;;;;;;4.00;3.00;;;;;;;;4956575;28;45412;-54
2021/12/28 11:25:02;;;;;;;;;6.00;4.67;;;;;;;;4958034;28;45220;-51
2021/12/28 11:27:27;;;;;;;;;3.00;2.33;;;;;;;;4957699;28;45326;-52
2021/12/28 11:29:53;;;;;;;;;1.67;1.67;;;;;;;;4957343;28;45609;-56
2021/12/28 11:32:20;;;;;;;;;2.00;2.00;;;;;;;;4957761;28;45450;-53
2021/12/28 11:34:46;;;;;;;;;5.33;2.67;;;;;;;;4957827;28;45417;-51
2021/12/28 11:37:17;;;;;;;;;4.33;3.00;;;;;;;;4957694;28;45434;-56
2021/12/28 11:39:44;;;;;;;;;3.00;3.00;;;;;;;;4957366;28;45391;-57
2021/12/28 11:42:10;;;;;;;;;3.33;2.67;;;;;;;;4957194;28;45322;-52
2021/12/28 11:44:35;;;;;;;;;2.00;2.00;;;;;;;;4957408;28;45600;-54
2021/12/28 11:47:01;;;;;;;;;3.33;2.33;;;;;;;;4957402;28;45398;-56
2021/12/28 11:49:28;;;;;;;;;6.00;4.33;;;;;;;;4957499;28;45218;-54
2021/12/28 11:51:58;;;;;;;;;4.67;4.00;;;;;;;;4957312;28;45262;-53
2021/12/28 11:54:24;;;;;;;;;5.00;4.00;;;;;;;;4957452;28;45396;-55
2021/12/28 11:56:57;;;;;;;;;4.67;1.67;;;;;;;;4956113;28;45357;-53
2021/12/28 11:59:23;;;;;;;;;3.00;2.33;;;;;;;;4957110;28;45365;-57
2021/12/28 12:01:52;;;;;;;;;3.33;2.00;;;;;;;;4957367;28;45269;-54
2021/12/28 12:04:29;;;;;;;;;3.00;3.00;;;;;;;;4957142;28;45618;-55
2021/12/28 12:07:01;;;;;;;;;2.33;2.00;;;;;;;;4957503;28;45297;-55
2021/12/28 12:09:27;;;;;;;;;2.00;2.00;;;;;;;;4957638;28;45324;-54
2021/12/28 12:12:07;;;;;;;;;3.67;3.67;;;;;;;;4957308;28;45250;-54
2021/12/28 12:14:57;;;;;;;;;8.33;4.00;;;;;;;;4955667;28;45579;-54
2021/12/28 12:17:27;;;;;;;;;3.67;2.00;;;;;;;;4951757;28;45251;-58
2021/12/28 12:19:52;;;;;;;;;4.67;3.00;;;;;;;;4955941;28;45409;-55
2021/12/28 12:22:29;;;;;;;;;0.00;0.00;;;;;;;;4957364;28;45420;-55
2021/12/28 12:24:55;;;;;;;;;6.00;4.00;;;;;;;;4957263;28;45182;-59
2021/12/28 12:27:38;;;;;;;;;5.67;4.33;;;;;;;;4956911;28;46046;-52
2021/12/28 12:30:24;;;;;;;;;9.33;3.00;;;;;;;;4957306;28;45255;-57
2021/12/28 12:33:09;;;;;;;;;3.00;3.00;;;;;;;;4957325;28;45303;-53
2021/12/28 12:35:34;;;;;;;;;6.00;5.67;;;;;;;;4956736;28;45566;-56
2021/12/28 12:38:01;;;;;;;;;8.33;6.00;;;;;;;;4956800;28;46271;-54
2021/12/28 12:40:44;;;;;;;;;5.33;4.33;;;;;;;;4957322;28;45411;-56
2021/12/28 12:43:11;;;;;;;;;4.67;4.00;;;;;;;;4957165;28;45209;-55
2021/12/28 12:45:59;;;;;;;;;3.33;3.00;;;;;;;;4957182;28;45305;-56
2021/12/28 12:48:35;;;;;;;;;4.00;2.67;;;;;;;;4956302;28;46149;-55
2021/12/28 12:51:18;;;;;;;;;4.00;2.33;;;;;;;;4955665;28;45946;-51
2021/12/28 12:53:45;;;;;;;;;3.00;3.00;;;;;;;;4957069;28;45356;-53
2021/12/28 12:56:21;;;;;;;;;4.00;2.33;;;;;;;;4955774;28;45293;-54
2021/12/28 12:58:47;;;;;;;;;5.00;4.00;;;;;;;;4954661;28;45428;-56
2021/12/28 13:01:24;;;;;;;;;7.33;3.00;;;;;;;;4956533;28;45283;-52
2021/12/28 13:03:49;;;;;;;;;6.00;3.00;;;;;;;;4956938;28;45427;-56
2021/12/28 13:06:34;;;;;;;;;1.00;1.00;;;;;;;;4956949;28;45337;-56
2021/12/28 13:09:00;;;;;;;;;5.00;5.00;;;;;;;;4959335;28;45980;-53
2021/12/28 13:11:32;;;;;;;;;5.33;4.00;;;;;;;;4960165;28;45380;-54
2021/12/28 13:13:57;;;;;;;;;6.00;3.67;;;;;;;;4960091;28;45313;-55
2021/12/28 13:16:22;;;;;;;;;5.33;5.00;;;;;;;;4960036;28;45365;-58
2021/12/28 13:18:47;;;;;;;;;4.00;4.00;;;;;;;;4959925;28;45326;-57
2021/12/28 13:21:18;;;;;;;;;10.67;5.33;;;;;;;;4974422;28;46158;-57
2021/12/28 13:24:03;;;;;;;;;5.33;4.00;;;;;;;;4960123;28;45314;-53
2021/12/28 13:26:28;;;;;;;;;6.33;4.67;;;;;;;;4959897;28;45559;-56
2021/12/28 13:29:00;;;;;;;;;8.33;6.33;;;;;;;;4959660;28;46103;-56
2021/12/28 13:31:25;;;;;;;;;6.00;5.33;;;;;;;;4959590;28;45397;-57
2021/12/28 13:33:56;;;;;;;;;11.67;7.33;;;;;;;;4959956;28;45284;-53
2021/12/28 13:36:23;;;;;;;;;8.00;3.00;;;;;;;;4959912;28;45344;-57
2021/12/28 13:38:48;;;;;;;;;3.67;2.00;;;;;;;;4959665;28;45392;-54
2021/12/28 13:41:14;;;;;;;;;6.00;3.67;;;;;;;;4959536;28;45320;-55
2021/12/28 13:43:39;;;;;;;;;3.67;2.00;;;;;;;;4959347;28;45260;-57
2021/12/28 13:46:09;;;;;;;;;5.00;3.00;;;;;;;;4959712;28;45565;-54
2021/12/28 13:48:34;;;;;;;;;5.00;2.33;;;;;;;;4959356;28;45472;-55
2021/12/28 13:51:01;;;;;;;;;5.00;2.00;;;;;;;;4959445;28;45449;-56
2021/12/28 13:53:28;;;;;;;;;3.33;2.00;;;;;;;;4959146;28;45345;-59
2021/12/28 13:55:56;;;;;;;;;11.67;7.67;;;;;;;;4959441;28;45265;-55
2021/12/28 13:58:35;;;;;;;;;2.00;2.00;;;;;;;;4959564;28;45965;-57
2021/12/28 14:01:08;;;;;;;;;4.67;2.33;;;;;;;;4959518;28;45354;-55
2021/12/28 14:03:33;;;;;;;;;2.00;2.00;;;;;;;;4959485;28;45381;-57
2021/12/28 14:05:59;;;;;;;;;5.67;3.00;;;;;;;;4959148;28;45330;-56
2021/12/28 14:08:25;;;;;;;;;5.00;4.00;;;;;;;;4959246;28;45397;-53
2021/12/28 14:10:53;;;;;;;;;6.33;5.00;;;;;;;;4959268;28;45313;-54
2021/12/28 14:13:23;;;;;;;;;4.00;3.67;;;;;;;;4959572;28;45318;-55
2021/12/28 14:15:52;;;;;;;;;3.00;3.00;;;;;;;;4957352;28;45505;-58
2021/12/28 14:18:28;;;;;;;;;10.00;3.00;;;;;;;;4956297;28;46278;-57
2021/12/28 14:20:55;;;;;;;;;5.00;3.00;;;;;;;;4957081;28;45284;-53
2021/12/28 14:23:32;;;;;;;;;2.33;2.00;;;;;;;;4959346;28;45208;-55
2021/12/28 14:26:09;;;;;;;;;4.67;3.00;;;;;;;;4958987;28;45535;-52
2021/12/28 14:28:35;;;;;;;;;1.00;1.00;;;;;;;;4959046;28;45453;-53
2021/12/28 14:31:14;;;;;;;;;3.00;3.00;;;;;;;;4958874;28;45455;-54
2021/12/28 14:33:49;;;;;;;;;3.33;3.00;;;;;;;;4959201;28;45199;-53
2021/12/28 14:36:15;;;;;;;;;3.00;3.00;;;;;;;;4958993;28;45369;-54
2021/12/28 14:38:40;;;;;;;;;2.00;2.00;;;;;;;;4958205;28;45875;-54
2021/12/28 14:41:38;;;;;;;;;9.33;4.00;;;;;;;;4957445;28;45236;-55
2021/12/28 14:44:12;;;;;;;;;2.33;2.00;;;;;;;;4935693;28;45394;-55